Van Horn, Texas
Current Conditions -  °F | °C
As of 3:51 AM on Friday 21 Nov 2014 (Local Time) from KGDP Reporting Station
Clear Clear  
Wind Chill:   Ceiling: Unl
Heat Index:   Visibility: 10mi
Dew Point: -7°   Wind: 13mph
Humidity: 33%   Direction: 240°WSW
Pressure: 30.07"   Gusts: NA
Location:  31.04°N, 104.83°W
Report Text: KGDP 210951Z AUTO 24011KT 10SM CLR 08/M07 A3007 RMK AO2 SLP139 T00831072
Loading
Personal Weather Stations






























Interactive Weather Map New forecast layout! Learn more

10-Day Weather Forecast

Advertisements
Track Severe Weather on mobile